Time;durP1;ratioP1;P1;durP2;ratioP2;P2;SDS_P1;SDS_P2;PMS_P1;PMS_P2;Temp;Humidity;BMP_temperature;BMP_pressure;BME280_temperature;BME280_humidity;BME280_pressure;Samples;Min_cycle;Max_cycle;Signal;HPM_P1;HPM_P2
2023/03/26 00:00:14;;;;;;;3.95;1.58;;;7.30;22.30;;;;;;7387219;19;20018;-73
2023/03/26 00:02:46;;;;;;;9.00;1.90;;;7.30;22.20;;;;;;7365896;19;20378;-71
2023/03/26 00:05:16;;;;;;;5.45;1.55;;;7.30;21.90;;;;;;7366475;19;20027;-72
2023/03/26 00:07:47;;;;;;;5.95;1.80;;;7.30;22.20;;;;;;7366553;19;20035;-72
2023/03/26 00:10:17;;;;;;;5.07;1.60;;;7.30;22.50;;;;;;7364851;19;20006;-72
2023/03/26 00:12:47;;;;;;;4.45;1.58;;;7.30;22.20;;;;;;7364337;19;20360;-72
2023/03/26 00:15:17;;;;;;;4.90;1.73;;;7.20;22.60;;;;;;7387152;19;20074;-72
2023/03/26 00:17:49;;;;;;;5.05;1.80;;;7.10;23.10;;;;;;7366866;19;20018;-72
2023/03/26 00:20:20;;;;;;;6.30;1.77;;;7.10;23.90;;;;;;7365930;19;20022;-72
2023/03/26 00:22:52;;;;;;;3.20;1.80;;;7.20;24.00;;;;;;7371619;19;20011;-72
2023/03/26 00:25:22;;;;;;;3.10;1.50;;;7.20;23.40;;;;;;7373757;19;20024;-72
2023/03/26 00:27:53;;;;;;;4.05;1.75;;;7.20;23.00;;;;;;7373379;19;20043;-72
2023/03/26 00:30:23;;;;;;;6.20;2.22;;;7.10;23.40;;;;;;7393764;19;20021;-72
2023/03/26 00:32:56;;;;;;;6.75;2.10;;;7.10;22.80;;;;;;7372231;19;20020;-72
2023/03/26 00:35:28;;;;;;;9.40;1.80;;;7.10;23.30;;;;;;7371095;19;20047;-72
2023/03/26 00:37:58;;;;;;;7.10;2.00;;;7.10;22.90;;;;;;7373141;19;20073;-71
2023/03/26 00:40:28;;;;;;;5.63;1.75;;;7.10;22.70;;;;;;7371547;19;20105;-71
2023/03/26 00:42:58;;;;;;;3.08;1.52;;;7.20;21.40;;;;;;7371740;19;20511;-72
2023/03/26 00:45:28;;;;;;;3.65;1.23;;;7.20;21.00;;;;;;7393690;19;20090;-72
2023/03/26 00:48:00;;;;;;;4.30;1.48;;;7.10;20.10;;;;;;7372883;19;20347;-72
2023/03/26 00:50:31;;;;;;;11.48;2.03;;;7.10;20.30;;;;;;7369608;19;20010;-72
2023/03/26 00:53:01;;;;;;;5.25;1.67;;;7.10;20.60;;;;;;7371652;19;20383;-72
2023/03/26 00:55:31;;;;;;;6.38;1.85;;;7.10;19.90;;;;;;7370226;19;20010;-72
2023/03/26 00:58:01;;;;;;;8.85;2.08;;;7.10;19.40;;;;;;7372360;19;20014;-72
2023/03/26 01:00:33;;;;;;;5.90;1.70;;;7.10;19.40;;;;;;7391625;19;20018;-72
2023/03/26 01:03:08;;;;;;;4.22;1.45;;;7.10;19.10;;;;;;7371776;19;20007;-72
2023/03/26 01:05:47;;;;;;;;;;;7.10;18.10;;;;;;7371109;19;20011;-72
2023/03/26 01:08:37;;;;;;;3.03;1.77;;;7.00;17.20;;;;;;7371631;19;19915;-72
2023/03/26 01:11:12;;;;;;;3.90;1.40;;;7.00;17.40;;;;;;7372028;19;20011;-72
2023/03/26 01:13:46;;;;;;;6.82;2.30;;;6.90;17.80;;;;;;7369961;19;20025;-72
2023/03/26 01:16:26;;;;;;;8.25;1.92;;;6.90;19.30;;;;;;7371376;19;20090;-72
2023/03/26 01:18:59;;;;;;;6.00;2.25;;;6.90;20.10;;;;;;7370870;19;20124;-72
2023/03/26 01:21:33;;;;;;;6.03;2.10;;;6.90;20.80;;;;;;7392561;19;20029;-73
2023/03/26 01:24:07;;;;;;;5.73;1.93;;;6.80;21.00;;;;;;7370302;19;20011;-73
2023/03/26 01:27:03;;;;;;;4.03;1.73;;;6.90;21.60;;;;;;7371448;19;20011;-73
2023/03/26 01:29:41;;;;;;;4.38;1.85;;;6.90;21.70;;;;;;7369072;19;20025;-73
2023/03/26 01:32:23;;;;;;;7.63;2.25;;;6.90;21.40;;;;;;7371179;19;20085;-73
2023/03/26 01:35:11;;;;;;;4.55;1.60;;;6.80;20.80;;;;;;7370369;19;20010;-73
2023/03/26 01:37:51;;;;;;;6.13;2.17;;;6.90;21.50;;;;;;7370819;19;20082;-73
2023/03/26 01:40:30;;;;;;;6.78;1.98;;;6.90;20.90;;;;;;7369939;19;20023;-72
2023/03/26 01:43:08;;;;;;;5.28;1.83;;;6.90;20.80;;;;;;7370655;19;20014;-73
2023/03/26 01:45:41;;;;;;;7.18;2.13;;;6.90;20.80;;;;;;7370781;19;20011;-73
2023/03/26 01:48:11;;;;;;;6.93;2.20;;;6.80;20.70;;;;;;7392846;19;20029;-72
2023/03/26 01:50:42;;;;;;;6.43;2.10;;;6.80;20.80;;;;;;7368664;19;20215;-73
2023/03/26 01:53:15;;;;;;;7.05;1.95;;;6.80;20.90;;;;;;7371166;19;20081;-73
2023/03/26 01:56:00;;;;;;;5.47;1.88;;;6.70;20.70;;;;;;7370062;19;20014;-73
2023/03/26 01:58:38;;;;;;;7.47;1.60;;;6.80;20.70;;;;;;7368999;19;20120;-73
2023/03/26 02:01:18;;;;;;;7.38;1.90;;;6.80;20.50;;;;;;7371562;19;20017;-72
2023/03/26 02:03:55;;;;;;;7.60;2.50;;;6.90;20.50;;;;;;7365720;19;20459;-72
2023/03/26 02:06:33;;;;;;;5.80;2.65;;;7.00;19.90;;;;;;7392451;19;20034;-72
2023/03/26 02:09:07;;;;;;;5.15;1.98;;;6.90;18.80;;;;;;7369529;19;20029;-72
2023/03/26 02:11:42;;;;;;;9.57;2.30;;;6.90;18.80;;;;;;7380227;19;20082;-71
2023/03/26 02:14:12;;;;;;;7.00;2.13;;;6.90;19.00;;;;;;7368477;19;20015;-72
2023/03/26 02:16:45;;;;;;;9.98;2.45;;;6.90;18.30;;;;;;7344339;19;20058;-72
2023/03/26 02:19:20;;;;;;;6.35;1.80;;;7.00;18.30;;;;;;7368717;19;20066;-72
2023/03/26 02:21:51;;;;;;;7.28;1.98;;;7.00;18.30;;;;;;7370227;19;20015;-72
2023/03/26 02:24:21;;;;;;;4.32;1.63;;;7.00;17.70;;;;;;7388568;19;20010;-72
2023/03/26 02:26:54;;;;;;;7.82;1.90;;;7.00;18.30;;;;;;7369639;19;20018;-72
2023/03/26 02:29:25;;;;;;;5.00;1.75;;;7.10;18.50;;;;;;7366909;19;20458;-72
2023/03/26 02:31:55;;;;;;;2.95;1.55;;;7.10;17.90;;;;;;7369944;19;20025;-72
2023/03/26 02:34:25;;;;;;;3.88;1.80;;;7.10;17.90;;;;;;7366892;19;20226;-72
2023/03/26 02:36:56;;;;;;;6.25;2.05;;;7.20;17.60;;;;;;7368390;19;20011;-72
2023/03/26 02:39:26;;;;;;;6.70;2.25;;;7.20;17.70;;;;;;7388470;19;20030;-72
2023/03/26 02:41:59;;;;;;;5.82;1.88;;;7.20;16.20;;;;;;7369305;19;20014;-72
2023/03/26 02:44:29;;;;;;;4.88;1.38;;;7.20;15.60;;;;;;7367524;19;20025;-72
2023/03/26 02:46:59;;;;;;;3.67;1.45;;;7.20;15.60;;;;;;7369333;19;20039;-72
2023/03/26 02:49:29;;;;;;;4.72;1.40;;;7.30;16.50;;;;;;7366287;19;20015;-73
2023/03/26 02:51:59;;;;;;;4.18;1.73;;;7.30;16.10;;;;;;7368852;19;20394;-73
2023/03/26 02:54:29;;;;;;;4.38;1.45;;;7.30;16.10;;;;;;7388794;19;20014;-73
2023/03/26 02:57:01;;;;;;;5.30;1.70;;;7.40;15.50;;;;;;7368160;19;20014;-73
2023/03/26 02:59:31;;;;;;;4.75;1.50;;;7.30;15.00;;;;;;7365759;19;20363;-73
2023/03/26 03:02:01;;;;;;;6.07;1.33;;;7.30;15.30;;;;;;7369909;19;20498;-73
2023/03/26 03:04:31;;;;;;;3.17;1.30;;;7.30;15.70;;;;;;7369208;19;20074;-71
2023/03/26 03:07:01;;;;;;;3.88;1.30;;;7.30;15.80;;;;;;7368885;19;20042;-73
2023/03/26 03:09:31;;;;;;;5.03;1.50;;;7.30;16.60;;;;;;7388922;19;20021;-73
2023/03/26 03:12:03;;;;;;;4.00;1.50;;;7.30;16.30;;;;;;7368328;19;20021;-73
2023/03/26 03:14:33;;;;;;;7.85;1.73;;;7.30;16.20;;;;;;7384501;19;20007;-73
2023/03/26 03:17:03;;;;;;;6.90;1.40;;;7.40;16.10;;;;;;7400958;19;20010;-72
2023/03/26 03:19:33;;;;;;;6.47;1.67;;;7.40;15.60;;;;;;7400263;19;20413;-72
2023/03/26 03:22:03;;;;;;;5.53;1.52;;;7.50;14.20;;;;;;7379961;19;20021;-73
2023/03/26 03:24:34;;;;;;;5.85;1.30;;;7.50;14.20;;;;;;7391476;19;20074;-73
2023/03/26 03:27:07;;;;;;;6.80;1.60;;;7.50;14.10;;;;;;7370179;19;20081;-73
2023/03/26 03:29:37;;;;;;;7.03;1.48;;;7.50;14.10;;;;;;7366331;19;20031;-73
2023/03/26 03:32:07;;;;;;;4.32;1.35;;;7.50;13.80;;;;;;7368148;19;20103;-72
2023/03/26 03:34:37;;;;;;;5.45;1.42;;;7.50;13.50;;;;;;7366627;19;20015;-72
2023/03/26 03:37:07;;;;;;;6.50;1.20;;;7.40;14.00;;;;;;7368815;19;20017;-73
2023/03/26 03:39:37;;;;;;;3.15;1.27;;;7.40;14.10;;;;;;7369379;19;20018;-74
2023/03/26 03:42:09;;;;;;;5.78;1.30;;;7.50;14.20;;;;;;7389523;19;20007;-73
2023/03/26 03:44:39;;;;;;;5.20;1.52;;;7.50;14.20;;;;;;7365965;19;20009;-73
2023/03/26 03:47:12;;;;;;;3.28;1.73;;;7.50;14.10;;;;;;7368056;19;20010;-74
2023/03/26 03:49:42;;;;;;;5.47;1.33;;;7.50;13.40;;;;;;7365562;19;20038;-74
2023/03/26 03:52:12;;;;;;;7.22;1.75;;;7.50;13.40;;;;;;7367416;19;20378;-73
2023/03/26 03:54:42;;;;;;;6.70;1.75;;;7.50;14.20;;;;;;7365810;19;20014;-73
2023/03/26 03:57:17;;;;;;;5.95;1.33;;;7.50;14.10;;;;;;7395492;19;20007;-73
2023/03/26 03:59:48;;;;;;;4.85;1.70;;;7.50;14.20;;;;;;7371751;19;20010;-73
2023/03/26 04:02:24;;;;;;;5.47;1.58;;;7.60;14.20;;;;;;7374376;19;20086;-73
2023/03/26 04:04:56;;;;;;;6.20;1.88;;;7.60;14.20;;;;;;7374013;19;20394;-73
2023/03/26 04:07:27;;;;;;;5.75;2.25;;;7.60;14.20;;;;;;7373018;19;20102;-73
2023/03/26 04:09:58;;;;;;;6.43;1.40;;;7.70;13.80;;;;;;7372311;19;20038;-73
2023/03/26 04:12:32;;;;;;;5.45;1.85;;;7.60;12.70;;;;;;7394548;19;20010;-73
2023/03/26 04:15:02;;;;;;;5.37;1.17;;;7.70;12.80;;;;;;7373560;19;20013;-73
2023/03/26 04:17:32;;;;;;;4.78;1.52;;;7.70;13.10;;;;;;7373261;19;20010;-73
2023/03/26 04:20:13;;;;;;;6.47;1.42;;;7.70;12.60;;;;;;7371513;19;20495;-74
2023/03/26 04:22:43;;;;;;;3.90;1.63;;;7.70;12.40;;;;;;7377614;19;20011;-73
2023/03/26 04:25:15;;;;;;;5.55;1.50;;;7.70;13.10;;;;;;7373345;19;20467;-73
2023/03/26 04:27:48;;;;;;;4.65;1.80;;;7.70;12.90;;;;;;7373463;19;20018;-73
2023/03/26 04:30:22;;;;;;;3.65;1.45;;;7.70;13.30;;;;;;7393082;19;20021;-73
2023/03/26 04:32:52;;;;;;;6.10;1.40;;;7.70;13.80;;;;;;7372756;19;20702;-73
2023/03/26 04:35:22;;;;;;;7.38;1.65;;;7.70;13.10;;;;;;7371905;19;20553;-73
2023/03/26 04:37:53;;;;;;;5.57;1.67;;;7.70;12.90;;;;;;7372677;19;20011;-73
2023/03/26 04:40:23;;;;;;;5.68;1.35;;;7.70;12.60;;;;;;7371502;19;20070;-73
2023/03/26 04:42:58;;;;;;;8.05;1.80;;;7.70;13.30;;;;;;7371993;19;20437;-73
2023/03/26 04:45:29;;;;;;;5.00;1.38;;;7.70;13.50;;;;;;7393928;19;20029;-73
2023/03/26 04:47:59;;;;;;;8.88;1.60;;;7.80;13.40;;;;;;7373291;19;20010;-73
2023/03/26 04:50:29;;;;;;;6.30;1.60;;;7.80;13.40;;;;;;7368853;19;20027;-73
2023/03/26 04:52:59;;;;;;;5.47;1.38;;;7.70;13.80;;;;;;7371314;19;20026;-73
2023/03/26 04:55:34;;;;;;;3.67;1.58;;;7.70;13.80;;;;;;7371041;19;20057;-73
2023/03/26 04:58:08;;;;;;;10.23;2.10;;;7.70;14.20;;;;;;7372466;19;20081;-73
2023/03/26 05:00:38;;;;;;;7.47;2.07;;;7.70;14.30;;;;;;7370116;19;20028;-72
2023/03/26 05:03:10;;;;;;;10.20;1.73;;;7.70;14.30;;;;;;7393491;19;20300;-74
2023/03/26 05:05:40;;;;;;;4.10;1.55;;;7.80;13.50;;;;;;7373800;19;20044;-74
2023/03/26 05:08:10;;;;;;;6.07;1.70;;;7.90;11.90;;;;;;7374210;19;20022;-73
2023/03/26 05:10:40;;;;;;;5.93;1.30;;;7.90;10.80;;;;;;7370579;19;20010;-73
2023/03/26 05:13:13;;;;;;;4.63;1.70;;;7.90;11.40;;;;;;7372149;19;20018;-73
2023/03/26 05:15:43;;;;;;;4.72;1.50;;;7.90;11.70;;;;;;7371033;19;20035;-72
2023/03/26 05:18:12;;;;;;;8.13;1.40;;;7.90;11.20;;;;;;7393593;19;20525;-72
2023/03/26 05:20:43;;;;;;;3.78;1.60;;;7.90;10.80;;;;;;7368393;19;20016;-72
2023/03/26 05:23:13;;;;;;;6.80;2.03;;;8.00;10.20;;;;;;7371412;19;20010;-73
2023/03/26 05:25:43;;;;;;;3.45;1.38;;;8.00;8.80;;;;;;7370820;19;20371;-73
2023/03/26 05:28:18;;;;;;;5.13;1.58;;;8.00;8.70;;;;;;7372095;19;20014;-73
2023/03/26 05:30:48;;;;;;;4.60;1.52;;;8.00;9.40;;;;;;7369316;19;20093;-73
2023/03/26 05:33:18;;;;;;;8.70;1.65;;;8.00;9.60;;;;;;7393232;19;20336;-74
2023/03/26 05:35:48;;;;;;;4.78;1.45;;;8.00;9.20;;;;;;7370591;19;20027;-74
2023/03/26 05:38:18;;;;;;;6.40;1.33;;;8.00;9.00;;;;;;7371206;19;20082;-74
2023/03/26 05:40:48;;;;;;;5.95;1.55;;;8.00;8.50;;;;;;7369686;19;20018;-74
2023/03/26 05:43:20;;;;;;;6.20;1.95;;;8.00;8.40;;;;;;7371108;19;20006;-74
2023/03/26 05:45:50;;;;;;;4.97;1.60;;;8.20;6.50;;;;;;7370408;19;20474;-73
2023/03/26 05:48:21;;;;;;;8.00;1.88;;;8.20;6.60;;;;;;7390182;19;20475;-74
2023/03/26 05:50:51;;;;;;;6.60;1.60;;;8.20;6.10;;;;;;7367806;19;20593;-74
2023/03/26 05:53:23;;;;;;;9.30;2.03;;;8.30;5.50;;;;;;7368852;19;20060;-74
2023/03/26 05:55:56;;;;;;;8.52;1.73;;;8.30;4.20;;;;;;7370598;19;20011;-74
2023/03/26 05:58:30;;;;;;;5.10;1.50;;;8.30;3.80;;;;;;7369368;19;20010;-74
2023/03/26 06:01:01;;;;;;;5.93;1.52;;;8.30;2.20;;;;;;7368787;19;20025;-74
2023/03/26 06:03:31;;;;;;;6.03;2.33;;;8.40;2.70;;;;;;7390781;19;20336;-74
2023/03/26 06:06:02;;;;;;;7.80;1.63;;;8.30;3.70;;;;;;7371311;19;20010;-74
2023/03/26 06:08:32;;;;;;;6.78;1.80;;;8.30;3.70;;;;;;7369491;19;20010;-74
2023/03/26 06:11:03;;;;;;;6.15;2.30;;;8.30;5.00;;;;;;7369001;19;20528;-73
2023/03/26 06:13:36;;;;;;;7.93;2.17;;;8.20;5.40;;;;;;7367445;19;20070;-74
2023/03/26 06:16:07;;;;;;;4.45;1.40;;;8.20;4.90;;;;;;7370171;19;20014;-73
2023/03/26 06:18:37;;;;;;;3.58;1.45;;;8.20;3.60;;;;;;7374111;19;20014;-72
2023/03/26 06:21:08;;;;;;;4.18;1.40;;;8.20;3.80;;;;;;7391326;19;20018;-73
2023/03/26 06:23:38;;;;;;;6.55;1.75;;;8.20;2.20;;;;;;7367941;19;20003;-73
2023/03/26 06:26:08;;;;;;;4.53;1.50;;;8.30;2.10;;;;;;7370612;19;20006;-73
2023/03/26 06:28:40;;;;;;;8.02;1.27;;;8.30;1.70;;;;;;7369717;19;20015;-73
2023/03/26 06:31:10;;;;;;;4.75;1.73;;;8.30;1.50;;;;;;7369641;19;20007;-73
2023/03/26 06:33:40;;;;;;;3.35;1.20;;;8.40;1.00;;;;;;7368601;19;20077;-73
2023/03/26 06:36:11;;;;;;;9.93;1.45;;;8.40;1.00;;;;;;7392358;19;20010;-73
2023/03/26 06:38:41;;;;;;;5.93;1.77;;;8.50;1.00;;;;;;7370274;19;20016;-73
2023/03/26 06:41:11;;;;;;;5.32;1.60;;;8.50;1.00;;;;;;7371036;19;20014;-73
2023/03/26 06:43:43;;;;;;;7.07;2.13;;;8.50;1.00;;;;;;7368014;19;20382;-74
2023/03/26 06:46:13;;;;;;;5.63;1.50;;;8.50;1.00;;;;;;7370970;19;20082;-75
2023/03/26 06:48:43;;;;;;;4.13;1.55;;;8.50;1.00;;;;;;7374363;19;20024;-73
2023/03/26 06:51:13;;;;;;;6.53;1.58;;;8.50;1.00;;;;;;7423382;19;20327;-73
2023/03/26 06:53:43;;;;;;;8.98;1.70;;;8.50;1.00;;;;;;7402461;19;20035;-73
2023/03/26 06:56:13;;;;;;;10.35;2.33;;;8.60;1.00;;;;;;7392438;19;20002;-73
2023/03/26 06:58:45;;;;;;;3.90;1.40;;;8.60;1.00;;;;;;7370944;19;20014;-73
2023/03/26 07:01:15;;;;;;;7.97;2.15;;;8.60;1.00;;;;;;7370735;19;20011;-73
2023/03/26 07:03:45;;;;;;;4.60;1.70;;;8.60;1.00;;;;;;7367148;19;20043;-73
2023/03/26 07:06:15;;;;;;;6.65;1.90;;;8.60;1.00;;;;;;7392444;19;20078;-73
2023/03/26 07:08:45;;;;;;;6.55;1.60;;;8.60;1.00;;;;;;7368395;19;20010;-74
2023/03/26 07:11:15;;;;;;;9.82;1.60;;;8.60;1.00;;;;;;7369248;19;20489;-73
2023/03/26 07:13:48;;;;;;;6.28;2.47;;;8.50;1.00;;;;;;7365858;19;20390;-73
2023/03/26 07:16:17;;;;;;;4.43;1.73;;;8.50;1.00;;;;;;7369172;19;20006;-73
2023/03/26 07:18:47;;;;;;;10.30;1.63;;;8.50;1.00;;;;;;7367315;19;20014;-73
2023/03/26 07:21:18;;;;;;;6.95;1.65;;;8.50;1.00;;;;;;7389972;19;20007;-73
2023/03/26 07:23:49;;;;;;;10.23;1.80;;;8.50;1.00;;;;;;7366332;19;20014;-72
2023/03/26 07:26:30;;;;;;;5.43;1.60;;;8.50;1.00;;;;;;7369269;19;20014;-73
2023/03/26 07:29:12;;;;;;;6.53;1.52;;;8.60;1.00;;;;;;7369223;19;20030;-72
2023/03/26 07:31:47;;;;;;;7.47;1.90;;;8.60;1.00;;;;;;7374287;19;20360;-72
2023/03/26 07:34:36;;;;;;;4.85;1.60;;;8.50;2.10;;;;;;7375247;19;20031;-72
2023/03/26 07:37:13;;;;;;;5.72;2.10;;;8.40;1.70;;;;;;7375979;19;20015;-73
2023/03/26 07:39:52;;;;;;;8.65;1.70;;;8.40;1.00;;;;;;7372638;19;20050;-72
2023/03/26 07:42:35;;;;;;;4.97;1.38;;;8.40;2.10;;;;;;7395962;19;20014;-73
2023/03/26 07:45:18;;;;;;;7.88;2.13;;;8.30;4.90;;;;;;7374524;19;20014;-72
2023/03/26 07:47:52;;;;;;;6.03;1.58;;;8.20;8.90;;;;;;7374322;19;20035;-72
2023/03/26 07:50:24;;;;;;;9.20;1.83;;;8.10;11.00;;;;;;7371203;19;20011;-72
2023/03/26 07:52:55;;;;;;;5.72;2.05;;;8.00;10.50;;;;;;7373991;19;20015;-72
2023/03/26 07:55:25;;;;;;;7.82;2.28;;;7.90;14.40;;;;;;7373371;19;20875;-72
2023/03/26 07:58:09;;;;;;;6.72;1.90;;;7.90;17.40;;;;;;7376441;19;20023;-72
2023/03/26 08:00:46;;;;;;;7.25;2.40;;;7.80;18.60;;;;;;7372132;19;20022;-72
2023/03/26 08:03:42;;;;;;;8.75;2.13;;;7.80;20.70;;;;;;7395387;19;20015;-73
2023/03/26 08:06:18;;;;;;;3.88;1.55;;;7.80;22.00;;;;;;7375205;19;20010;-73
2023/03/26 08:08:55;;;;;;;7.35;2.10;;;7.80;21.60;;;;;;7373635;19;20026;-72
2023/03/26 08:11:32;;;;;;;7.88;2.53;;;7.70;22.10;;;;;;7373405;19;20010;-71
2023/03/26 08:14:15;;;;;;;9.55;2.28;;;7.80;24.50;;;;;;7372336;19;20006;-72
2023/03/26 08:16:52;;;;;;;6.63;2.20;;;7.80;24.80;;;;;;7375520;19;20034;-72
2023/03/26 08:19:39;;;;;;;7.45;2.42;;;7.80;23.80;;;;;;7370374;19;20006;-72
2023/03/26 08:22:15;;;;;;;8.40;1.90;;;7.70;21.30;;;;;;7373541;19;20051;-70
2023/03/26 08:25:00;;;;;;;8.63;2.60;;;7.70;22.90;;;;;;7373010;19;20011;-71
2023/03/26 08:27:39;;;;;;;12.20;2.20;;;7.80;23.40;;;;;;7395221;19;20025;-72
2023/03/26 08:30:14;;;;;;;7.80;2.40;;;7.80;22.60;;;;;;7371250;19;20010;-72
2023/03/26 08:32:54;;;;;;;5.68;2.25;;;7.80;22.50;;;;;;7371939;19;20538;-70
2023/03/26 08:35:24;;;;;;;6.35;2.30;;;7.70;22.90;;;;;;7371546;19;20018;-72
2023/03/26 08:37:54;;;;;;;5.55;1.95;;;7.80;24.80;;;;;;7372392;19;20106;-71
2023/03/26 08:40:46;;;;;;;9.40;2.38;;;7.80;24.80;;;;;;7369747;19;20035;-71
2023/03/26 08:43:44;;;;;;;5.78;2.58;;;7.70;23.80;;;;;;7372478;19;20025;-71
2023/03/26 08:46:34;;;;;;;9.05;2.40;;;7.70;24.80;;;;;;7370481;19;20393;-71
2023/03/26 08:49:45;;;;;;;6.40;2.25;;;7.80;26.10;;;;;;7371944;19;20007;-70
2023/03/26 08:52:44;;;;;;;7.60;2.42;;;7.70;26.60;;;;;;7371660;19;20010;-71
2023/03/26 08:55:44;;;;;;;5.47;2.53;;;7.80;27.80;;;;;;7372075;19;20013;-71
2023/03/26 08:58:48;;;;;;;9.57;2.55;;;7.80;28.30;;;;;;7372981;19;20010;-70
2023/03/26 09:01:46;;;;;;;5.70;2.05;;;7.90;29.90;;;;;;7371485;19;20006;-71
2023/03/26 09:04:32;;;;;;;8.00;2.58;;;7.90;29.90;;;;;;7371732;19;20035;-72
2023/03/26 09:07:42;;;;;;;7.25;2.50;;;8.10;31.60;;;;;;7372016;19;20018;-72
2023/03/26 09:10:47;;;;;;;5.78;3.10;;;8.10;32.10;;;;;;7370706;19;20006;-72
2023/03/26 09:13:42;;;;;;;6.35;2.38;;;8.20;32.10;;;;;;7371543;19;20011;-71
2023/03/26 09:16:37;;;;;;;7.68;2.75;;;8.30;32.80;;;;;;7373382;19;20024;-72
2023/03/26 09:19:15;;;;;;;;;;;8.20;30.30;;;;;;7372409;19;20087;-72
2023/03/26 09:22:14;;;;;;;6.50;2.90;;;8.30;30.70;;;;;;7371670;19;19911;-72
2023/03/26 09:25:18;;;;;;;9.93;2.75;;;8.50;30.50;;;;;;7373315;19;20010;-71
2023/03/26 09:28:19;;;;;;;8.85;2.08;;;8.60;30.50;;;;;;7371890;19;20025;-72
2023/03/26 09:31:14;;;;;;;9.68;2.95;;;8.80;27.40;;;;;;7370612;19;20014;-72
2023/03/26 09:33:59;;;;;;;4.93;2.28;;;9.50;27.30;;;;;;7368251;19;20506;-71
2023/03/26 09:36:42;;;;;;;6.78;1.60;;;9.70;22.30;;;;;;7393807;19;20028;-71
2023/03/26 09:39:19;;;;;;;5.25;2.13;;;10.00;16.80;;;;;;7370982;19;20006;-72
2023/03/26 09:42:02;;;;;;;6.13;2.05;;;10.30;18.20;;;;;;7368077;19;20013;-72
2023/03/26 09:45:10;;;;;;;5.93;1.63;;;10.30;16.00;;;;;;7369105;19;20010;-71
2023/03/26 09:48:19;;;;;;;4.93;1.73;;;10.20;12.60;;;;;;7370857;19;20390;-72
2023/03/26 09:51:07;;;;;;;6.88;2.03;;;10.50;16.50;;;;;;7368263;19;20010;-72
2023/03/26 09:54:00;;;;;;;4.95;1.50;;;10.70;15.50;;;;;;7367284;19;20371;-72
2023/03/26 09:56:48;;;;;;;9.70;2.22;;;10.50;11.30;;;;;;7370188;19;20483;-73
2023/03/26 09:59:40;;;;;;;3.85;1.60;;;10.50;12.30;;;;;;7368929;19;20664;-71
2023/03/26 10:02:24;;;;;;;5.78;1.75;;;10.60;14.00;;;;;;7369419;19;20025;-74
2023/03/26 10:05:41;;;;;;;4.00;1.90;;;10.60;11.10;;;;;;7369913;19;20022;-72
2023/03/26 10:08:34;;;;;;;3.60;1.67;;;10.60;10.50;;;;;;7370017;19;20022;-71
2023/03/26 10:11:11;;;;;;;4.72;1.73;;;10.60;9.30;;;;;;7369525;19;20522;-72
2023/03/26 10:13:54;;;;;;;5.47;1.80;;;10.70;8.30;;;;;;7368183;19;20612;-73
2023/03/26 10:16:33;;;;;;;2.90;1.60;;;10.80;7.70;;;;;;7369381;19;20363;-72
2023/03/26 10:19:21;;;;;;;3.47;1.42;;;11.00;5.50;;;;;;7369310;19;20018;-72
2023/03/26 10:22:02;;;;;;;2.17;1.30;;;11.10;2.90;;;;;;7367551;19;20017;-72
2023/03/26 10:24:49;;;;;;;5.40;1.70;;;11.60;1.80;;;;;;7390212;19;20035;-72
2023/03/26 10:27:33;;;;;;;4.97;1.55;;;11.90;1.00;;;;;;7368589;19;20604;-71
2023/03/26 10:30:33;;;;;;;4.25;1.20;;;11.90;1.00;;;;;;7366168;19;20035;-72
2023/03/26 10:33:23;;;;;;;2.03;1.23;;;12.20;1.00;;;;;;7368343;19;20018;-72
2023/03/26 10:36:09;;;;;;;2.88;1.10;;;12.20;1.00;;;;;;7368896;19;20014;-72
2023/03/26 10:38:55;;;;;;;2.10;1.02;;;12.40;1.00;;;;;;7368109;19;20039;-73
2023/03/26 10:41:35;;;;;;;3.33;1.23;;;12.40;1.00;;;;;;7365558;19;20006;-72
2023/03/26 10:44:26;;;;;;;4.47;1.40;;;12.80;1.00;;;;;;7368460;19;20571;-72
2023/03/26 10:47:23;;;;;;;2.25;1.08;;;12.90;1.00;;;;;;7369013;19;20014;-73
2023/03/26 10:50:06;;;;;;;3.97;1.55;;;12.70;1.00;;;;;;7365933;19;20077;-73
2023/03/26 10:52:43;;;;;;;2.53;0.77;;;12.90;1.00;;;;;;7368356;19;20633;-72
2023/03/26 10:55:16;;;;;;;4.20;1.10;;;13.00;1.00;;;;;;7367889;19;20106;-72
2023/03/26 10:57:51;;;;;;;4.50;1.20;;;12.80;1.00;;;;;;7367984;19;20011;-73
2023/03/26 11:00:24;;;;;;;2.75;0.80;;;12.10;1.00;;;;;;7387381;19;20018;-72
2023/03/26 11:03:21;;;;;;;2.43;1.40;;;11.90;1.00;;;;;;7365657;19;20051;-73
2023/03/26 11:06:00;;;;;;;3.67;1.13;;;11.60;1.00;;;;;;7368285;19;20014;-73
2023/03/26 11:08:40;;;;;;;5.40;1.38;;;11.90;1.00;;;;;;7367266;19;20503;-72
2023/03/26 11:11:21;;;;;;;6.68;2.95;;;12.20;1.00;;;;;;7367234;19;20478;-71
2023/03/26 11:14:00;;;;;;;4.82;1.58;;;12.10;1.00;;;;;;7367101;19;20818;-72
2023/03/26 11:16:41;;;;;;;2.88;1.27;;;12.40;1.00;;;;;;7367889;19;20011;-72
2023/03/26 11:19:22;;;;;;;3.15;1.08;;;12.70;1.00;;;;;;7367239;19;20100;-72
2023/03/26 11:21:58;;;;;;;2.47;1.02;;;13.10;1.00;;;;;;7366778;19;20014;-72
2023/03/26 11:24:56;;;;;;;0.88;0.57;;;13.40;1.00;;;;;;7387272;19;20029;-73
2023/03/26 11:27:34;;;;;;;2.40;0.90;;;14.10;1.00;;;;;;7366374;19;20010;-73
2023/03/26 11:30:17;;;;;;;2.42;0.65;;;14.00;1.00;;;;;;7365784;19;20367;-72
2023/03/26 11:32:50;;;;;;;4.32;1.88;;;14.20;1.00;;;;;;7366784;19;20014;-73
2023/03/26 11:35:26;;;;;;;1.55;0.90;;;13.90;1.00;;;;;;7366596;19;20019;-73
2023/03/26 11:38:19;;;;;;;2.83;1.45;;;14.00;1.00;;;;;;7367863;19;20011;-73
2023/03/26 11:40:56;;;;;;;2.45;0.93;;;13.60;1.00;;;;;;7365572;19;20010;-73
2023/03/26 11:43:34;;;;;;;2.88;1.02;;;13.30;1.00;;;;;;7363496;19;20346;-72
2023/03/26 11:46:08;;;;;;;2.38;0.90;;;13.40;1.00;;;;;;7367776;19;20093;-74
2023/03/26 11:48:43;;;;;;;3.67;0.90;;;13.00;1.00;;;;;;7367044;19;20133;-72
2023/03/26 11:51:17;;;;;;;1.83;1.30;;;12.20;1.00;;;;;;7387539;19;20010;-72
2023/03/26 11:53:48;;;;;;;3.00;1.30;;;11.90;1.00;;;;;;7366056;19;20011;-72
2023/03/26 11:56:29;;;;;;;2.47;1.08;;;11.40;1.00;;;;;;7367776;19;20477;-72
2023/03/26 11:59:04;;;;;;;3.13;1.50;;;11.80;1.00;;;;;;7366493;19;20422;-73
2023/03/26 12:01:49;;;;;;;4.45;1.45;;;11.90;1.00;;;;;;7364360;19;20400;-73
2023/03/26 12:04:20;;;;;;;2.60;1.20;;;12.00;1.00;;;;;;7366582;19;20014;-72
2023/03/26 12:06:58;;;;;;;4.55;1.05;;;12.30;1.00;;;;;;7366268;19;20024;-72
2023/03/26 12:09:28;;;;;;;3.28;1.20;;;11.80;1.00;;;;;;7386962;19;20012;-72
2023/03/26 12:12:03;;;;;;;2.60;0.90;;;12.00;1.00;;;;;;7365208;19;20006;-72
2023/03/26 12:14:36;;;;;;;2.08;0.82;;;12.20;1.00;;;;;;7365173;19;20010;-73
2023/03/26 12:17:08;;;;;;;1.50;0.75;;;12.00;1.00;;;;;;7371697;19;20015;-72
2023/03/26 12:19:42;;;;;;;1.70;0.80;;;11.90;1.00;;;;;;7371129;19;20006;-72
2023/03/26 12:22:32;;;;;;;2.95;0.93;;;11.60;1.00;;;;;;7370041;19;20443;-72
2023/03/26 12:25:16;;;;;;;1.45;0.63;;;11.80;1.00;;;;;;7373023;19;20014;-71
2023/03/26 12:27:51;;;;;;;1.92;0.40;;;12.20;1.00;;;;;;7372878;19;20375;-72
2023/03/26 12:30:24;;;;;;;3.65;1.10;;;12.20;1.00;;;;;;7393865;19;20046;-72
2023/03/26 12:32:59;;;;;;;2.17;0.60;;;12.40;1.00;;;;;;7371651;19;20018;-72
2023/03/26 12:35:32;;;;;;;2.55;0.90;;;12.20;1.00;;;;;;7372598;19;20039;-73
2023/03/26 12:38:23;;;;;;;3.05;1.05;;;12.50;1.00;;;;;;7372911;19;20027;-72
2023/03/26 12:41:08;;;;;;;2.92;1.30;;;12.70;1.00;;;;;;7371060;19;20074;-72
2023/03/26 12:44:22;;;;;;;2.00;0.77;;;13.00;1.00;;;;;;7371056;19;20018;-73
2023/03/26 12:47:19;;;;;;;4.57;0.95;;;13.30;1.00;;;;;;7372889;19;20018;-72
2023/03/26 12:50:14;;;;;;;2.03;0.80;;;13.30;1.00;;;;;;7370591;19;20119;-73
2023/03/26 12:53:04;;;;;;;2.85;0.90;;;13.50;1.00;;;;;;7371345;19;20011;-72
2023/03/26 12:55:43;;;;;;;3.28;1.00;;;13.80;1.00;;;;;;7371643;19;20015;-72
2023/03/26 12:58:37;;;;;;;2.80;0.90;;;13.80;1.00;;;;;;7373094;19;20006;-72
2023/03/26 13:01:19;;;;;;;2.60;0.75;;;14.00;1.00;;;;;;7370811;19;20015;-72
2023/03/26 13:04:14;;;;;;;4.70;1.20;;;13.90;1.00;;;;;;7369828;19;20080;-72
2023/03/26 13:06:49;;;;;;;1.75;0.90;;;13.80;1.00;;;;;;7371764;19;20010;-71
2023/03/26 13:09:55;;;;;;;2.50;0.65;;;13.80;1.00;;;;;;7391668;19;20510;-73
2023/03/26 13:12:37;;;;;;;3.67;0.82;;;13.90;1.00;;;;;;7369837;19;20474;-73
2023/03/26 13:15:27;;;;;;;4.32;0.80;;;13.90;1.00;;;;;;7371346;19;20017;-73
2023/03/26 13:18:18;;;;;;;4.57;0.98;;;14.10;1.00;;;;;;7369442;19;20020;-72
2023/03/26 13:20:56;;;;;;;4.07;1.02;;;14.10;1.00;;;;;;7368922;19;20039;-72
2023/03/26 13:23:38;;;;;;;3.67;0.90;;;14.00;1.00;;;;;;7369222;19;20078;-72
2023/03/26 13:26:21;;;;;;;4.50;1.15;;;14.00;1.00;;;;;;7371437;19;20019;-73
2023/03/26 13:28:58;;;;;;;2.58;0.98;;;14.10;1.00;;;;;;7370597;19;20463;-73
2023/03/26 13:31:35;;;;;;;5.03;1.05;;;13.90;1.00;;;;;;7369280;19;20007;-73
2023/03/26 13:34:16;;;;;;;6.25;1.35;;;13.50;1.00;;;;;;7370680;19;20021;-72
2023/03/26 13:36:59;;;;;;;3.30;0.98;;;13.30;1.00;;;;;;7370795;19;20017;-72
2023/03/26 13:39:36;;;;;;;3.83;0.90;;;12.70;1.00;;;;;;7390144;19;20015;-72
2023/03/26 13:42:38;;;;;;;3.20;0.98;;;12.80;1.00;;;;;;7370246;19;20013;-72
2023/03/26 13:45:16;;;;;;;3.10;1.48;;;12.60;1.00;;;;;;7370887;19;20010;-72
2023/03/26 13:47:50;;;;;;;3.63;1.30;;;12.60;1.00;;;;;;7370144;19;20471;-73
2023/03/26 13:50:27;;;;;;;4.85;1.08;;;12.60;1.00;;;;;;7367537;19;20015;-72